sensor_id;sensor_type;location;lat;lon;timestamp;P1;durP1;ratioP1;P2;durP2;ratioP2
8708;SDS011;4391;48.678;9.280;2023-08-12T00:02:00;8.02;;;3.80;;
8708;SDS011;4391;48.678;9.280;2023-08-12T00:04:27;5.95;;;3.47;;
8708;SDS011;4391;48.678;9.280;2023-08-12T00:06:54;7.77;;;3.90;;
8708;SDS011;4391;48.678;9.280;2023-08-12T00:09:21;6.65;;;3.58;;
8708;SDS011;4391;48.678;9.280;2023-08-12T00:11:48;9.45;;;3.72;;
8708;SDS011;4391;48.678;9.280;2023-08-12T00:14:15;7.50;;;3.60;;
8708;SDS011;4391;48.678;9.280;2023-08-12T00:16:41;9.23;;;3.97;;
8708;SDS011;4391;48.678;9.280;2023-08-12T00:19:10;11.73;;;4.27;;
8708;SDS011;4391;48.678;9.280;2023-08-12T00:21:37;12.35;;;4.43;;
8708;SDS011;4391;48.678;9.280;2023-08-12T00:24:04;13.15;;;5.18;;
8708;SDS011;4391;48.678;9.280;2023-08-12T00:26:32;9.07;;;4.82;;
8708;SDS011;4391;48.678;9.280;2023-08-12T00:28:59;11.80;;;4.28;;
8708;SDS011;4391;48.678;9.280;2023-08-12T00:31:26;8.87;;;4.00;;
8708;SDS011;4391;48.678;9.280;2023-08-12T00:33:53;10.27;;;3.80;;
8708;SDS011;4391;48.678;9.280;2023-08-12T00:36:21;7.72;;;4.13;;
8708;SDS011;4391;48.678;9.280;2023-08-12T00:38:48;8.13;;;3.60;;
8708;SDS011;4391;48.678;9.280;2023-08-12T00:41:15;8.80;;;3.60;;
8708;SDS011;4391;48.678;9.280;2023-08-12T00:43:42;9.20;;;4.10;;
8708;SDS011;4391;48.678;9.280;2023-08-12T00:46:08;10.82;;;4.18;;
8708;SDS011;4391;48.678;9.280;2023-08-12T00:48:35;7.00;;;3.88;;
8708;SDS011;4391;48.678;9.280;2023-08-12T00:51:03;7.43;;;3.97;;
8708;SDS011;4391;48.678;9.280;2023-08-12T00:53:31;8.85;;;4.15;;
8708;SDS011;4391;48.678;9.280;2023-08-12T00:55:58;12.90;;;4.43;;
8708;SDS011;4391;48.678;9.280;2023-08-12T00:58:25;6.72;;;4.10;;
8708;SDS011;4391;48.678;9.280;2023-08-12T01:00:52;6.97;;;3.67;;
8708;SDS011;4391;48.678;9.280;2023-08-12T01:03:19;9.32;;;4.43;;
8708;SDS011;4391;48.678;9.280;2023-08-12T01:05:46;8.43;;;3.97;;
8708;SDS011;4391;48.678;9.280;2023-08-12T01:08:13;7.13;;;4.20;;
8708;SDS011;4391;48.678;9.280;2023-08-12T01:10:43;7.68;;;3.70;;
8708;SDS011;4391;48.678;9.280;2023-08-12T01:13:17;8.77;;;4.10;;
8708;SDS011;4391;48.678;9.280;2023-08-12T01:15:49;6.90;;;3.50;;
8708;SDS011;4391;48.678;9.280;2023-08-12T01:18:19;12.05;;;4.18;;
8708;SDS011;4391;48.678;9.280;2023-08-12T01:20:48;9.63;;;4.27;;
8708;SDS011;4391;48.678;9.280;2023-08-12T01:23:16;6.47;;;3.60;;
8708;SDS011;4391;48.678;9.280;2023-08-12T01:25:45;8.43;;;3.80;;
8708;SDS011;4391;48.678;9.280;2023-08-12T01:28:12;7.18;;;3.72;;
8708;SDS011;4391;48.678;9.280;2023-08-12T01:30:39;8.35;;;3.95;;
8708;SDS011;4391;48.678;9.280;2023-08-12T01:33:14;9.50;;;4.27;;
8708;SDS011;4391;48.678;9.280;2023-08-12T01:35:46;8.77;;;4.32;;
8708;SDS011;4391;48.678;9.280;2023-08-12T01:38:19;9.05;;;3.97;;
8708;SDS011;4391;48.678;9.280;2023-08-12T01:40:47;9.75;;;3.85;;
8708;SDS011;4391;48.678;9.280;2023-08-12T01:43:16;7.32;;;4.00;;
8708;SDS011;4391;48.678;9.280;2023-08-12T01:45:42;11.30;;;4.17;;
8708;SDS011;4391;48.678;9.280;2023-08-12T01:48:10;8.10;;;4.30;;
8708;SDS011;4391;48.678;9.280;2023-08-12T01:50:37;9.13;;;4.43;;
8708;SDS011;4391;48.678;9.280;2023-08-12T01:53:04;10.07;;;4.88;;
8708;SDS011;4391;48.678;9.280;2023-08-12T01:55:32;9.25;;;4.63;;
8708;SDS011;4391;48.678;9.280;2023-08-12T01:57:59;7.37;;;4.40;;
8708;SDS011;4391;48.678;9.280;2023-08-12T02:00:26;9.07;;;4.18;;
8708;SDS011;4391;48.678;9.280;2023-08-12T02:02:53;8.20;;;4.35;;
8708;SDS011;4391;48.678;9.280;2023-08-12T02:05:19;12.70;;;4.88;;
8708;SDS011;4391;48.678;9.280;2023-08-12T02:07:46;8.40;;;4.10;;
8708;SDS011;4391;48.678;9.280;2023-08-12T02:10:13;9.23;;;4.57;;
8708;SDS011;4391;48.678;9.280;2023-08-12T02:12:42;7.55;;;4.28;;
8708;SDS011;4391;48.678;9.280;2023-08-12T02:15:09;8.35;;;4.68;;
8708;SDS011;4391;48.678;9.280;2023-08-12T02:17:36;7.85;;;4.50;;
8708;SDS011;4391;48.678;9.280;2023-08-12T02:20:03;7.90;;;4.40;;
8708;SDS011;4391;48.678;9.280;2023-08-12T02:22:31;10.27;;;4.47;;
8708;SDS011;4391;48.678;9.280;2023-08-12T02:24:58;9.48;;;4.35;;
8708;SDS011;4391;48.678;9.280;2023-08-12T02:27:25;7.50;;;4.57;;
8708;SDS011;4391;48.678;9.280;2023-08-12T02:29:53;7.82;;;4.55;;
8708;SDS011;4391;48.678;9.280;2023-08-12T02:32:20;8.18;;;4.70;;
8708;SDS011;4391;48.678;9.280;2023-08-12T02:34:47;10.80;;;4.67;;
8708;SDS011;4391;48.678;9.280;2023-08-12T02:37:14;7.28;;;4.20;;
8708;SDS011;4391;48.678;9.280;2023-08-12T02:39:41;6.93;;;4.15;;
8708;SDS011;4391;48.678;9.280;2023-08-12T02:42:07;11.05;;;4.35;;
8708;SDS011;4391;48.678;9.280;2023-08-12T02:44:34;10.55;;;4.35;;
8708;SDS011;4391;48.678;9.280;2023-08-12T02:47:02;7.53;;;4.80;;
8708;SDS011;4391;48.678;9.280;2023-08-12T02:49:29;9.27;;;4.50;;
8708;SDS011;4391;48.678;9.280;2023-08-12T02:51:56;10.48;;;4.32;;
8708;SDS011;4391;48.678;9.280;2023-08-12T02:54:23;7.15;;;4.18;;
8708;SDS011;4391;48.678;9.280;2023-08-12T02:56:50;9.13;;;4.43;;
8708;SDS011;4391;48.678;9.280;2023-08-12T02:59:17;7.87;;;4.60;;
8708;SDS011;4391;48.678;9.280;2023-08-12T03:01:44;10.27;;;4.97;;
8708;SDS011;4391;48.678;9.280;2023-08-12T03:04:12;7.45;;;4.20;;
8708;SDS011;4391;48.678;9.280;2023-08-12T03:06:39;9.13;;;4.30;;
8708;SDS011;4391;48.678;9.280;2023-08-12T03:09:06;9.38;;;5.25;;
8708;SDS011;4391;48.678;9.280;2023-08-12T03:11:32;9.50;;;4.53;;
8708;SDS011;4391;48.678;9.280;2023-08-12T03:13:59;10.35;;;4.90;;
8708;SDS011;4391;48.678;9.280;2023-08-12T03:16:26;7.63;;;4.38;;
8708;SDS011;4391;48.678;9.280;2023-08-12T03:18:53;9.50;;;4.50;;
8708;SDS011;4391;48.678;9.280;2023-08-12T03:21:21;9.65;;;4.57;;
8708;SDS011;4391;48.678;9.280;2023-08-12T03:23:48;8.37;;;4.70;;
8708;SDS011;4391;48.678;9.280;2023-08-12T03:26:15;7.15;;;3.97;;
8708;SDS011;4391;48.678;9.280;2023-08-12T03:28:42;9.40;;;4.68;;
8708;SDS011;4391;48.678;9.280;2023-08-12T03:31:08;9.45;;;4.85;;
8708;SDS011;4391;48.678;9.280;2023-08-12T03:33:35;7.45;;;4.07;;
8708;SDS011;4391;48.678;9.280;2023-08-12T03:36:02;9.70;;;4.37;;
8708;SDS011;4391;48.678;9.280;2023-08-12T03:38:31;7.30;;;3.72;;
8708;SDS011;4391;48.678;9.280;2023-08-12T03:40:58;7.57;;;4.53;;
8708;SDS011;4391;48.678;9.280;2023-08-12T03:43:24;9.32;;;4.50;;
8708;SDS011;4391;48.678;9.280;2023-08-12T03:45:51;12.15;;;4.97;;
8708;SDS011;4391;48.678;9.280;2023-08-12T03:48:21;8.07;;;4.40;;
8708;SDS011;4391;48.678;9.280;2023-08-12T03:50:48;11.32;;;4.78;;
8708;SDS011;4391;48.678;9.280;2023-08-12T03:53:15;8.90;;;4.13;;
8708;SDS011;4391;48.678;9.280;2023-08-12T03:55:44;7.72;;;4.50;;
8708;SDS011;4391;48.678;9.280;2023-08-12T03:58:10;7.93;;;4.28;;
8708;SDS011;4391;48.678;9.280;2023-08-12T04:00:40;8.17;;;4.20;;
8708;SDS011;4391;48.678;9.280;2023-08-12T04:03:07;11.55;;;4.75;;
8708;SDS011;4391;48.678;9.280;2023-08-12T04:05:35;7.15;;;4.05;;
8708;SDS011;4391;48.678;9.280;2023-08-12T04:08:01;10.48;;;3.85;;
8708;SDS011;4391;48.678;9.280;2023-08-12T04:10:29;8.05;;;4.40;;
8708;SDS011;4391;48.678;9.280;2023-08-12T04:12:58;7.70;;;3.83;;
8708;SDS011;4391;48.678;9.280;2023-08-12T04:15:24;7.32;;;4.00;;
8708;SDS011;4391;48.678;9.280;2023-08-12T04:17:51;6.72;;;4.05;;
8708;SDS011;4391;48.678;9.280;2023-08-12T04:20:18;7.00;;;3.85;;
8708;SDS011;4391;48.678;9.280;2023-08-12T04:22:45;9.50;;;4.40;;
8708;SDS011;4391;48.678;9.280;2023-08-12T04:25:12;6.13;;;3.57;;
8708;SDS011;4391;48.678;9.280;2023-08-12T04:27:39;9.90;;;4.15;;
8708;SDS011;4391;48.678;9.280;2023-08-12T04:30:08;9.70;;;4.07;;
8708;SDS011;4391;48.678;9.280;2023-08-12T04:32:35;8.32;;;4.45;;
8708;SDS011;4391;48.678;9.280;2023-08-12T04:35:02;8.82;;;4.20;;
8708;SDS011;4391;48.678;9.280;2023-08-12T04:37:30;9.13;;;4.80;;
8708;SDS011;4391;48.678;9.280;2023-08-12T04:39:57;10.05;;;4.18;;
8708;SDS011;4391;48.678;9.280;2023-08-12T04:42:24;9.60;;;4.43;;
8708;SDS011;4391;48.678;9.280;2023-08-12T04:44:51;10.55;;;4.25;;
8708;SDS011;4391;48.678;9.280;2023-08-12T04:47:19;9.23;;;4.28;;
8708;SDS011;4391;48.678;9.280;2023-08-12T04:49:46;9.60;;;4.33;;
8708;SDS011;4391;48.678;9.280;2023-08-12T04:52:13;8.52;;;3.80;;
8708;SDS011;4391;48.678;9.280;2023-08-12T04:54:40;9.68;;;4.10;;
8708;SDS011;4391;48.678;9.280;2023-08-12T04:57:07;7.30;;;4.10;;
8708;SDS011;4391;48.678;9.280;2023-08-12T04:59:34;8.88;;;4.25;;
8708;SDS011;4391;48.678;9.280;2023-08-12T05:02:01;6.97;;;4.10;;
8708;SDS011;4391;48.678;9.280;2023-08-12T05:04:29;9.10;;;3.80;;
8708;SDS011;4391;48.678;9.280;2023-08-12T05:06:56;14.88;;;4.82;;
8708;SDS011;4391;48.678;9.280;2023-08-12T05:09:22;7.28;;;4.32;;
8708;SDS011;4391;48.678;9.280;2023-08-12T05:11:49;11.15;;;5.18;;
8708;SDS011;4391;48.678;9.280;2023-08-12T05:14:16;11.57;;;4.30;;
8708;SDS011;4391;48.678;9.280;2023-08-12T05:16:46;7.50;;;4.40;;
8708;SDS011;4391;48.678;9.280;2023-08-12T05:19:13;7.45;;;4.43;;
8708;SDS011;4391;48.678;9.280;2023-08-12T05:21:41;8.02;;;4.53;;
8708;SDS011;4391;48.678;9.280;2023-08-12T05:24:08;9.48;;;4.25;;
8708;SDS011;4391;48.678;9.280;2023-08-12T05:26:36;6.97;;;4.13;;
8708;SDS011;4391;48.678;9.280;2023-08-12T05:29:03;8.25;;;4.50;;
8708;SDS011;4391;48.678;9.280;2023-08-12T05:31:30;8.45;;;4.57;;
8708;SDS011;4391;48.678;9.280;2023-08-12T05:33:57;8.55;;;4.55;;
8708;SDS011;4391;48.678;9.280;2023-08-12T05:36:24;8.57;;;4.38;;
8708;SDS011;4391;48.678;9.280;2023-08-12T05:38:52;9.20;;;3.97;;
8708;SDS011;4391;48.678;9.280;2023-08-12T05:41:19;10.68;;;4.47;;
8708;SDS011;4391;48.678;9.280;2023-08-12T05:43:46;7.65;;;4.32;;
8708;SDS011;4391;48.678;9.280;2023-08-12T05:46:13;9.52;;;4.50;;
8708;SDS011;4391;48.678;9.280;2023-08-12T05:48:40;8.25;;;4.40;;
8708;SDS011;4391;48.678;9.280;2023-08-12T05:51:07;10.07;;;4.40;;
8708;SDS011;4391;48.678;9.280;2023-08-12T05:53:35;9.20;;;4.15;;
8708;SDS011;4391;48.678;9.280;2023-08-12T05:56:04;9.95;;;4.40;;
8708;SDS011;4391;48.678;9.280;2023-08-12T05:58:31;12.00;;;4.50;;
8708;SDS011;4391;48.678;9.280;2023-08-12T06:00:58;7.80;;;4.22;;
8708;SDS011;4391;48.678;9.280;2023-08-12T06:03:25;9.70;;;4.23;;
8708;SDS011;4391;48.678;9.280;2023-08-12T06:05:52;8.35;;;4.38;;
8708;SDS011;4391;48.678;9.280;2023-08-12T06:08:18;7.32;;;4.50;;
8708;SDS011;4391;48.678;9.280;2023-08-12T06:10:45;13.30;;;6.85;;
8708;SDS011;4391;48.678;9.280;2023-08-12T06:13:14;31.52;;;13.50;;
8708;SDS011;4391;48.678;9.280;2023-08-12T06:15:44;16.30;;;7.10;;
8708;SDS011;4391;48.678;9.280;2023-08-12T06:18:10;10.57;;;4.18;;
8708;SDS011;4391;48.678;9.280;2023-08-12T06:20:40;8.82;;;4.07;;
8708;SDS011;4391;48.678;9.280;2023-08-12T06:23:07;8.65;;;4.70;;
8708;SDS011;4391;48.678;9.280;2023-08-12T06:25:34;8.75;;;4.80;;
8708;SDS011;4391;48.678;9.280;2023-08-12T06:28:01;8.33;;;4.33;;
8708;SDS011;4391;48.678;9.280;2023-08-12T06:30:34;9.98;;;4.63;;
8708;SDS011;4391;48.678;9.280;2023-08-12T06:33:04;12.55;;;3.80;;
8708;SDS011;4391;48.678;9.280;2023-08-12T06:35:30;8.13;;;4.18;;
8708;SDS011;4391;48.678;9.280;2023-08-12T06:37:57;9.82;;;4.30;;
8708;SDS011;4391;48.678;9.280;2023-08-12T06:40:24;11.50;;;4.30;;
8708;SDS011;4391;48.678;9.280;2023-08-12T06:42:51;9.25;;;4.63;;
8708;SDS011;4391;48.678;9.280;2023-08-12T06:45:18;8.80;;;4.07;;
8708;SDS011;4391;48.678;9.280;2023-08-12T06:47:47;10.00;;;4.10;;
8708;SDS011;4391;48.678;9.280;2023-08-12T06:50:13;7.93;;;3.78;;
8708;SDS011;4391;48.678;9.280;2023-08-12T06:52:40;7.00;;;3.90;;
8708;SDS011;4391;48.678;9.280;2023-08-12T06:55:07;7.72;;;4.43;;
8708;SDS011;4391;48.678;9.280;2023-08-12T06:57:34;7.93;;;4.10;;
8708;SDS011;4391;48.678;9.280;2023-08-12T07:00:01;10.15;;;3.97;;
8708;SDS011;4391;48.678;9.280;2023-08-12T07:02:29;8.45;;;4.07;;
8708;SDS011;4391;48.678;9.280;2023-08-12T07:04:57;9.37;;;4.33;;
8708;SDS011;4391;48.678;9.280;2023-08-12T07:07:24;9.95;;;3.90;;
8708;SDS011;4391;48.678;9.280;2023-08-12T07:09:51;7.07;;;3.78;;
8708;SDS011;4391;48.678;9.280;2023-08-12T07:12:18;8.65;;;4.10;;
8708;SDS011;4391;48.678;9.280;2023-08-12T07:14:45;8.93;;;3.72;;
8708;SDS011;4391;48.678;9.280;2023-08-12T07:17:12;8.10;;;3.70;;
8708;SDS011;4391;48.678;9.280;2023-08-12T07:19:39;7.22;;;3.78;;
8708;SDS011;4391;48.678;9.280;2023-08-12T07:22:07;8.13;;;3.95;;
8708;SDS011;4391;48.678;9.280;2023-08-12T07:24:34;9.65;;;3.90;;
8708;SDS011;4391;48.678;9.280;2023-08-12T07:27:01;8.68;;;3.80;;
8708;SDS011;4391;48.678;9.280;2023-08-12T07:29:28;9.10;;;4.07;;
8708;SDS011;4391;48.678;9.280;2023-08-12T07:31:55;8.20;;;4.00;;
8708;SDS011;4391;48.678;9.280;2023-08-12T07:34:22;9.00;;;3.70;;
8708;SDS011;4391;48.678;9.280;2023-08-12T07:36:49;7.30;;;3.72;;
8708;SDS011;4391;48.678;9.280;2023-08-12T07:39:17;7.82;;;3.80;;
8708;SDS011;4391;48.678;9.280;2023-08-12T07:41:44;5.97;;;3.47;;
8708;SDS011;4391;48.678;9.280;2023-08-12T07:44:11;8.50;;;3.40;;
8708;SDS011;4391;48.678;9.280;2023-08-12T07:46:38;7.43;;;3.45;;
8708;SDS011;4391;48.678;9.280;2023-08-12T07:49:05;8.23;;;3.75;;
8708;SDS011;4391;48.678;9.280;2023-08-12T07:51:32;8.43;;;3.40;;
8708;SDS011;4391;48.678;9.280;2023-08-12T07:53:58;9.47;;;3.60;;
8708;SDS011;4391;48.678;9.280;2023-08-12T07:56:27;6.15;;;3.92;;
8708;SDS011;4391;48.678;9.280;2023-08-12T07:58:53;8.18;;;3.20;;
8708;SDS011;4391;48.678;9.280;2023-08-12T08:01:20;6.93;;;3.40;;
8708;SDS011;4391;48.678;9.280;2023-08-12T08:03:47;8.95;;;3.35;;
8708;SDS011;4391;48.678;9.280;2023-08-12T08:06:14;5.43;;;3.20;;
8708;SDS011;4391;48.678;9.280;2023-08-12T08:08:41;6.57;;;3.20;;
8708;SDS011;4391;48.678;9.280;2023-08-12T08:11:08;7.10;;;3.20;;
8708;SDS011;4391;48.678;9.280;2023-08-12T08:13:36;6.18;;;3.20;;
8708;SDS011;4391;48.678;9.280;2023-08-12T08:16:03;6.72;;;3.28;;
8708;SDS011;4391;48.678;9.280;2023-08-12T08:18:30;7.80;;;2.70;;
8708;SDS011;4391;48.678;9.280;2023-08-12T08:20:57;7.72;;;3.00;;
8708;SDS011;4391;48.678;9.280;2023-08-12T08:23:24;6.47;;;3.28;;
8708;SDS011;4391;48.678;9.280;2023-08-12T08:25:51;4.97;;;3.00;;
8708;SDS011;4391;48.678;9.280;2023-08-12T08:28:18;5.57;;;2.50;;
8708;SDS011;4391;48.678;9.280;2023-08-12T08:30:46;7.47;;;3.00;;
8708;SDS011;4391;48.678;9.280;2023-08-12T08:33:13;9.18;;;2.90;;
8708;SDS011;4391;48.678;9.280;2023-08-12T08:35:40;4.63;;;2.38;;
8708;SDS011;4391;48.678;9.280;2023-08-12T08:38:07;5.15;;;2.58;;
8708;SDS011;4391;48.678;9.280;2023-08-12T08:40:33;7.00;;;3.13;;
8708;SDS011;4391;48.678;9.280;2023-08-12T08:43:02;6.17;;;3.10;;
8708;SDS011;4391;48.678;9.280;2023-08-12T08:45:29;6.25;;;2.80;;
8708;SDS011;4391;48.678;9.280;2023-08-12T08:48:00;4.65;;;2.53;;
8708;SDS011;4391;48.678;9.280;2023-08-12T08:50:27;7.50;;;3.03;;
8708;SDS011;4391;48.678;9.280;2023-08-12T08:52:55;5.05;;;2.80;;
8708;SDS011;4391;48.678;9.280;2023-08-12T08:55:23;4.93;;;2.70;;
8708;SDS011;4391;48.678;9.280;2023-08-12T08:57:50;7.78;;;3.10;;
8708;SDS011;4391;48.678;9.280;2023-08-12T09:00:18;6.10;;;2.80;;
8708;SDS011;4391;48.678;9.280;2023-08-12T09:02:46;5.00;;;2.75;;
8708;SDS011;4391;48.678;9.280;2023-08-12T09:05:15;4.70;;;2.40;;
8708;SDS011;4391;48.678;9.280;2023-08-12T09:07:45;5.33;;;2.40;;
8708;SDS011;4391;48.678;9.280;2023-08-12T09:10:13;6.67;;;2.27;;
8708;SDS011;4391;48.678;9.280;2023-08-12T09:12:43;6.13;;;2.58;;
8708;SDS011;4391;48.678;9.280;2023-08-12T09:15:11;6.50;;;2.53;;
8708;SDS011;4391;48.678;9.280;2023-08-12T09:17:38;4.10;;;2.10;;
8708;SDS011;4391;48.678;9.280;2023-08-12T09:20:06;5.72;;;2.33;;
8708;SDS011;4391;48.678;9.280;2023-08-12T09:22:38;6.07;;;2.40;;
8708;SDS011;4391;48.678;9.280;2023-08-12T09:25:06;5.73;;;2.40;;
8708;SDS011;4391;48.678;9.280;2023-08-12T09:27:34;5.30;;;2.40;;
8708;SDS011;4391;48.678;9.280;2023-08-12T09:30:02;4.53;;;2.05;;
8708;SDS011;4391;48.678;9.280;2023-08-12T09:32:30;6.03;;;2.50;;
8708;SDS011;4391;48.678;9.280;2023-08-12T09:34:59;5.75;;;2.47;;
8708;SDS011;4391;48.678;9.280;2023-08-12T09:37:28;5.85;;;2.55;;
8708;SDS011;4391;48.678;9.280;2023-08-12T09:39:56;5.13;;;2.40;;
8708;SDS011;4391;48.678;9.280;2023-08-12T09:42:23;7.70;;;2.30;;
8708;SDS011;4391;48.678;9.280;2023-08-12T09:44:51;5.60;;;2.53;;
8708;SDS011;4391;48.678;9.280;2023-08-12T09:47:17;4.53;;;2.00;;
8708;SDS011;4391;48.678;9.280;2023-08-12T09:49:45;6.57;;;1.92;;
8708;SDS011;4391;48.678;9.280;2023-08-12T09:52:11;4.37;;;2.10;;
8708;SDS011;4391;48.678;9.280;2023-08-12T09:54:38;12.43;;;2.30;;
8708;SDS011;4391;48.678;9.280;2023-08-12T09:57:09;4.75;;;2.35;;
8708;SDS011;4391;48.678;9.280;2023-08-12T09:59:38;5.18;;;2.08;;
8708;SDS011;4391;48.678;9.280;2023-08-12T10:02:07;5.30;;;2.20;;
8708;SDS011;4391;48.678;9.280;2023-08-12T10:04:44;9.80;;;2.10;;
8708;SDS011;4391;48.678;9.280;2023-08-12T10:07:12;4.60;;;2.00;;
8708;SDS011;4391;48.678;9.280;2023-08-12T10:09:41;5.77;;;2.30;;
8708;SDS011;4391;48.678;9.280;2023-08-12T10:12:12;4.50;;;2.00;;
8708;SDS011;4391;48.678;9.280;2023-08-12T10:14:40;7.55;;;1.90;;
8708;SDS011;4391;48.678;9.280;2023-08-12T10:17:07;4.07;;;1.98;;
8708;SDS011;4391;48.678;9.280;2023-08-12T10:19:36;5.40;;;2.20;;
8708;SDS011;4391;48.678;9.280;2023-08-12T10:22:04;6.00;;;2.30;;
8708;SDS011;4391;48.678;9.280;2023-08-12T10:24:32;9.23;;;2.10;;
8708;SDS011;4391;48.678;9.280;2023-08-12T10:27:01;5.78;;;2.30;;
8708;SDS011;4391;48.678;9.280;2023-08-12T10:29:29;5.55;;;2.40;;
8708;SDS011;4391;48.678;9.280;2023-08-12T10:31:56;5.47;;;2.10;;
8708;SDS011;4391;48.678;9.280;2023-08-12T10:34:24;5.15;;;2.30;;
8708;SDS011;4391;48.678;9.280;2023-08-12T10:36:53;6.53;;;2.60;;
8708;SDS011;4391;48.678;9.280;2023-08-12T10:39:22;5.15;;;2.20;;
8708;SDS011;4391;48.678;9.280;2023-08-12T10:41:54;5.15;;;2.50;;
8708;SDS011;4391;48.678;9.280;2023-08-12T10:44:21;5.28;;;2.25;;
8708;SDS011;4391;48.678;9.280;2023-08-12T10:46:53;6.47;;;2.42;;
8708;SDS011;4391;48.678;9.280;2023-08-12T10:49:21;8.37;;;2.20;;
8708;SDS011;4391;48.678;9.280;2023-08-12T10:51:49;5.33;;;2.77;;
8708;SDS011;4391;48.678;9.280;2023-08-12T10:54:17;6.53;;;2.55;;
8708;SDS011;4391;48.678;9.280;2023-08-12T10:59:52;5.20;;;2.15;;
8708;SDS011;4391;48.678;9.280;2023-08-12T11:02:25;5.00;;;2.50;;
8708;SDS011;4391;48.678;9.280;2023-08-12T11:04:54;6.33;;;2.47;;
8708;SDS011;4391;48.678;9.280;2023-08-12T11:07:22;5.22;;;2.38;;
8708;SDS011;4391;48.678;9.280;2023-08-12T11:09:58;4.28;;;2.10;;
8708;SDS011;4391;48.678;9.280;2023-08-12T11:12:29;4.63;;;2.20;;
8708;SDS011;4391;48.678;9.280;2023-08-12T11:14:57;5.03;;;2.70;;
8708;SDS011;4391;48.678;9.280;2023-08-12T11:17:30;4.63;;;2.10;;
8708;SDS011;4391;48.678;9.280;2023-08-12T11:20:00;3.90;;;1.87;;
8708;SDS011;4391;48.678;9.280;2023-08-12T11:22:29;5.13;;;2.30;;
8708;SDS011;4391;48.678;9.280;2023-08-12T11:24:56;7.47;;;2.53;;
8708;SDS011;4391;48.678;9.280;2023-08-12T11:27:23;6.10;;;2.45;;
8708;SDS011;4391;48.678;9.280;2023-08-12T11:29:50;4.82;;;2.05;;
8708;SDS011;4391;48.678;9.280;2023-08-12T11:32:17;7.17;;;2.23;;
8708;SDS011;4391;48.678;9.280;2023-08-12T11:34:46;4.20;;;2.00;;
8708;SDS011;4391;48.678;9.280;2023-08-12T11:37:13;5.70;;;2.00;;
8708;SDS011;4391;48.678;9.280;2023-08-12T11:39:40;5.32;;;2.13;;
8708;SDS011;4391;48.678;9.280;2023-08-12T11:42:07;10.02;;;2.00;;
8708;SDS011;4391;48.678;9.280;2023-08-12T11:44:34;5.18;;;2.28;;
8708;SDS011;4391;48.678;9.280;2023-08-12T11:47:01;6.10;;;1.90;;
8708;SDS011;4391;48.678;9.280;2023-08-12T11:49:28;5.70;;;2.00;;
8708;SDS011;4391;48.678;9.280;2023-08-12T11:51:56;4.83;;;2.27;;
8708;SDS011;4391;48.678;9.280;2023-08-12T11:54:23;6.88;;;2.00;;
8708;SDS011;4391;48.678;9.280;2023-08-12T11:56:51;5.57;;;2.20;;
8708;SDS011;4391;48.678;9.280;2023-08-12T11:59:20;6.95;;;2.45;;
8708;SDS011;4391;48.678;9.280;2023-08-12T12:01:48;5.43;;;1.90;;
8708;SDS011;4391;48.678;9.280;2023-08-12T12:04:15;4.07;;;2.00;;
8708;SDS011;4391;48.678;9.280;2023-08-12T12:06:45;8.50;;;2.13;;
8708;SDS011;4391;48.678;9.280;2023-08-12T12:09:17;7.35;;;1.90;;
8708;SDS011;4391;48.678;9.280;2023-08-12T12:11:45;9.52;;;1.85;;
8708;SDS011;4391;48.678;9.280;2023-08-12T12:14:12;6.07;;;2.30;;
8708;SDS011;4391;48.678;9.280;2023-08-12T12:16:41;5.07;;;1.95;;
8708;SDS011;4391;48.678;9.280;2023-08-12T12:19:09;5.40;;;1.87;;
8708;SDS011;4391;48.678;9.280;2023-08-12T12:21:39;7.33;;;2.23;;
8708;SDS011;4391;48.678;9.280;2023-08-12T12:24:17;6.78;;;1.90;;
8708;SDS011;4391;48.678;9.280;2023-08-12T12:26:46;7.53;;;2.30;;
8708;SDS011;4391;48.678;9.280;2023-08-12T12:29:13;4.78;;;2.35;;
8708;SDS011;4391;48.678;9.280;2023-08-12T12:31:43;7.53;;;2.00;;
8708;SDS011;4391;48.678;9.280;2023-08-12T12:34:10;7.00;;;2.07;;
8708;SDS011;4391;48.678;9.280;2023-08-12T12:36:39;6.70;;;2.15;;
8708;SDS011;4391;48.678;9.280;2023-08-12T12:39:07;8.88;;;2.33;;
8708;SDS011;4391;48.678;9.280;2023-08-12T12:41:35;8.02;;;2.25;;
8708;SDS011;4391;48.678;9.280;2023-08-12T12:44:02;9.55;;;3.03;;
8708;SDS011;4391;48.678;9.280;2023-08-12T12:46:30;8.03;;;3.13;;
8708;SDS011;4391;48.678;9.280;2023-08-12T12:48:56;11.50;;;3.88;;
8708;SDS011;4391;48.678;9.280;2023-08-12T12:51:23;14.70;;;4.60;;
8708;SDS011;4391;48.678;9.280;2023-08-12T12:53:50;13.60;;;4.70;;
8708;SDS011;4391;48.678;9.280;2023-08-12T12:56:17;12.23;;;4.55;;
8708;SDS011;4391;48.678;9.280;2023-08-12T12:58:46;11.47;;;4.27;;
8708;SDS011;4391;48.678;9.280;2023-08-12T13:01:13;13.68;;;4.40;;
8708;SDS011;4391;48.678;9.280;2023-08-12T13:03:40;11.20;;;4.47;;
8708;SDS011;4391;48.678;9.280;2023-08-12T13:06:06;11.48;;;4.00;;
8708;SDS011;4391;48.678;9.280;2023-08-12T13:08:33;9.80;;;3.67;;
8708;SDS011;4391;48.678;9.280;2023-08-12T13:11:00;7.40;;;3.27;;
8708;SDS011;4391;48.678;9.280;2023-08-12T13:13:27;9.98;;;3.28;;
8708;SDS011;4391;48.678;9.280;2023-08-12T13:15:56;6.38;;;2.80;;
8708;SDS011;4391;48.678;9.280;2023-08-12T13:18:22;6.93;;;2.70;;
8708;SDS011;4391;48.678;9.280;2023-08-12T13:20:49;8.05;;;2.65;;
8708;SDS011;4391;48.678;9.280;2023-08-12T13:23:17;6.40;;;2.60;;
8708;SDS011;4391;48.678;9.280;2023-08-12T13:25:43;5.80;;;2.42;;
8708;SDS011;4391;48.678;9.280;2023-08-12T13:28:11;5.47;;;2.75;;
8708;SDS011;4391;48.678;9.280;2023-08-12T13:30:38;7.70;;;2.75;;
8708;SDS011;4391;48.678;9.280;2023-08-12T13:33:06;7.10;;;3.05;;
8708;SDS011;4391;48.678;9.280;2023-08-12T13:35:33;6.27;;;2.63;;
8708;SDS011;4391;48.678;9.280;2023-08-12T13:38:00;6.68;;;2.70;;
8708;SDS011;4391;48.678;9.280;2023-08-12T13:40:27;8.85;;;2.63;;
8708;SDS011;4391;48.678;9.280;2023-08-12T13:42:54;7.28;;;2.65;;
8708;SDS011;4391;48.678;9.280;2023-08-12T13:45:21;7.60;;;2.50;;
8708;SDS011;4391;48.678;9.280;2023-08-12T13:47:49;7.23;;;2.50;;
8708;SDS011;4391;48.678;9.280;2023-08-12T13:50:18;6.82;;;2.65;;
8708;SDS011;4391;48.678;9.280;2023-08-12T13:52:45;7.35;;;2.60;;
8708;SDS011;4391;48.678;9.280;2023-08-12T13:55:14;8.00;;;2.42;;
8708;SDS011;4391;48.678;9.280;2023-08-12T13:57:40;5.47;;;1.83;;
8708;SDS011;4391;48.678;9.280;2023-08-12T14:00:08;4.80;;;1.80;;
8708;SDS011;4391;48.678;9.280;2023-08-12T14:02:38;7.10;;;1.80;;
8708;SDS011;4391;48.678;9.280;2023-08-12T14:05:05;4.30;;;1.30;;
8708;SDS011;4391;48.678;9.280;2023-08-12T14:07:35;4.40;;;1.65;;
8708;SDS011;4391;48.678;9.280;2023-08-12T14:10:02;3.47;;;1.20;;
8708;SDS011;4391;48.678;9.280;2023-08-12T14:12:30;4.13;;;1.13;;
8708;SDS011;4391;48.678;9.280;2023-08-12T14:14:57;4.68;;;1.30;;
8708;SDS011;4391;48.678;9.280;2023-08-12T14:17:24;5.35;;;1.63;;
8708;SDS011;4391;48.678;9.280;2023-08-12T14:19:51;3.38;;;1.00;;
8708;SDS011;4391;48.678;9.280;2023-08-12T14:22:19;5.70;;;1.10;;
8708;SDS011;4391;48.678;9.280;2023-08-12T14:24:50;2.40;;;0.80;;
8708;SDS011;4391;48.678;9.280;2023-08-12T14:27:17;3.33;;;0.63;;
8708;SDS011;4391;48.678;9.280;2023-08-12T14:29:46;2.53;;;0.70;;
8708;SDS011;4391;48.678;9.280;2023-08-12T14:32:21;3.92;;;0.77;;
8708;SDS011;4391;48.678;9.280;2023-08-12T14:34:53;2.60;;;0.90;;
8708;SDS011;4391;48.678;9.280;2023-08-12T14:37:23;1.75;;;0.70;;
8708;SDS011;4391;48.678;9.280;2023-08-12T14:39:51;2.17;;;0.82;;
8708;SDS011;4391;48.678;9.280;2023-08-12T14:42:18;3.50;;;1.00;;
8708;SDS011;4391;48.678;9.280;2023-08-12T14:44:45;3.97;;;0.90;;
8708;SDS011;4391;48.678;9.280;2023-08-12T14:47:12;2.75;;;0.80;;
8708;SDS011;4391;48.678;9.280;2023-08-12T14:49:39;2.78;;;0.90;;
8708;SDS011;4391;48.678;9.280;2023-08-12T14:52:14;5.47;;;0.90;;
8708;SDS011;4391;48.678;9.280;2023-08-12T14:54:42;2.70;;;0.90;;
8708;SDS011;4391;48.678;9.280;2023-08-12T14:57:10;2.17;;;0.80;;
8708;SDS011;4391;48.678;9.280;2023-08-12T14:59:37;2.80;;;0.82;;
8708;SDS011;4391;48.678;9.280;2023-08-12T15:02:04;2.58;;;0.90;;
8708;SDS011;4391;48.678;9.280;2023-08-12T15:04:31;3.05;;;1.08;;
8708;SDS011;4391;48.678;9.280;2023-08-12T15:06:58;2.42;;;0.85;;
8708;SDS011;4391;48.678;9.280;2023-08-12T15:09:25;3.03;;;0.90;;
8708;SDS011;4391;48.678;9.280;2023-08-12T15:11:52;2.28;;;0.93;;
8708;SDS011;4391;48.678;9.280;2023-08-12T15:14:20;3.28;;;1.00;;
8708;SDS011;4391;48.678;9.280;2023-08-12T15:16:47;3.20;;;1.15;;
8708;SDS011;4391;48.678;9.280;2023-08-12T15:19:14;5.05;;;1.33;;